sensor_id;sensor_type;location;lat;lon;timestamp;P1;durP1;ratioP1;P2;durP2;ratioP2
55003;SDS011;40900;52.710;6.438;2022-11-15T00:00:26;29.65;;;20.02;;
55003;SDS011;40900;52.710;6.438;2022-11-15T00:02:52;28.65;;;21.77;;
55003;SDS011;40900;52.710;6.438;2022-11-15T00:05:18;29.75;;;22.88;;
55003;SDS011;40900;52.710;6.438;2022-11-15T00:07:43;29.75;;;21.30;;
55003;SDS011;40900;52.710;6.438;2022-11-15T00:10:09;31.50;;;22.23;;
55003;SDS011;40900;52.710;6.438;2022-11-15T00:12:35;31.95;;;23.08;;
55003;SDS011;40900;52.710;6.438;2022-11-15T00:15:01;31.02;;;22.48;;
55003;SDS011;40900;52.710;6.438;2022-11-15T00:17:26;31.10;;;22.02;;
55003;SDS011;40900;52.710;6.438;2022-11-15T00:19:52;30.20;;;22.35;;
55003;SDS011;40900;52.710;6.438;2022-11-15T00:22:18;31.33;;;22.10;;
55003;SDS011;40900;52.710;6.438;2022-11-15T00:24:43;29.08;;;22.42;;
55003;SDS011;40900;52.710;6.438;2022-11-15T00:27:09;30.85;;;22.40;;
55003;SDS011;40900;52.710;6.438;2022-11-15T00:29:34;33.08;;;21.23;;
55003;SDS011;40900;52.710;6.438;2022-11-15T00:32:02;31.67;;;22.08;;
55003;SDS011;40900;52.710;6.438;2022-11-15T00:34:28;32.40;;;21.23;;
55003;SDS011;40900;52.710;6.438;2022-11-15T00:36:54;32.05;;;23.65;;
55003;SDS011;40900;52.710;6.438;2022-11-15T00:39:19;29.80;;;21.92;;
55003;SDS011;40900;52.710;6.438;2022-11-15T00:41:45;30.25;;;22.02;;
55003;SDS011;40900;52.710;6.438;2022-11-15T00:44:11;31.02;;;21.50;;
55003;SDS011;40900;52.710;6.438;2022-11-15T00:46:36;31.10;;;22.63;;
55003;SDS011;40900;52.710;6.438;2022-11-15T00:49:02;32.80;;;23.55;;
55003;SDS011;40900;52.710;6.438;2022-11-15T00:51:28;33.25;;;22.55;;
55003;SDS011;40900;52.710;6.438;2022-11-15T00:53:53;34.80;;;23.40;;
55003;SDS011;40900;52.710;6.438;2022-11-15T00:56:19;31.10;;;22.35;;
55003;SDS011;40900;52.710;6.438;2022-11-15T00:58:45;33.80;;;22.33;;
55003;SDS011;40900;52.710;6.438;2022-11-15T01:01:12;31.92;;;23.30;;
55003;SDS011;40900;52.710;6.438;2022-11-15T01:03:39;36.20;;;23.50;;
55003;SDS011;40900;52.710;6.438;2022-11-15T01:06:05;38.65;;;24.83;;
55003;SDS011;40900;52.710;6.438;2022-11-15T01:08:32;36.65;;;23.20;;
55003;SDS011;40900;52.710;6.438;2022-11-15T01:11:06;37.50;;;24.15;;
55003;SDS011;40900;52.710;6.438;2022-11-15T01:13:34;37.47;;;24.30;;
55003;SDS011;40900;52.710;6.438;2022-11-15T01:18:35;32.08;;;24.00;;
55003;SDS011;40900;52.710;6.438;2022-11-15T01:21:04;36.33;;;24.65;;
55003;SDS011;40900;52.710;6.438;2022-11-15T01:23:31;34.63;;;23.20;;
55003;SDS011;40900;52.710;6.438;2022-11-15T01:26:01;34.30;;;24.23;;
55003;SDS011;40900;52.710;6.438;2022-11-15T01:28:31;32.78;;;24.30;;
55003;SDS011;40900;52.710;6.438;2022-11-15T01:31:02;33.20;;;24.27;;
55003;SDS011;40900;52.710;6.438;2022-11-15T01:33:29;34.50;;;22.83;;
55003;SDS011;40900;52.710;6.438;2022-11-15T01:35:55;34.10;;;23.20;;
55003;SDS011;40900;52.710;6.438;2022-11-15T01:38:21;34.72;;;23.63;;
55003;SDS011;40900;52.710;6.438;2022-11-15T01:40:47;35.72;;;24.17;;
55003;SDS011;40900;52.710;6.438;2022-11-15T01:43:20;34.38;;;23.33;;
55003;SDS011;40900;52.710;6.438;2022-11-15T01:45:50;37.35;;;23.77;;
55003;SDS011;40900;52.710;6.438;2022-11-15T01:48:28;36.60;;;23.67;;
55003;SDS011;40900;52.710;6.438;2022-11-15T01:50:58;34.65;;;23.25;;
55003;SDS011;40900;52.710;6.438;2022-11-15T01:53:26;39.35;;;24.77;;
55003;SDS011;40900;52.710;6.438;2022-11-15T01:55:53;37.20;;;25.08;;
55003;SDS011;40900;52.710;6.438;2022-11-15T01:58:19;37.80;;;23.60;;
55003;SDS011;40900;52.710;6.438;2022-11-15T02:00:45;36.95;;;23.67;;
55003;SDS011;40900;52.710;6.438;2022-11-15T02:03:12;41.50;;;24.90;;
55003;SDS011;40900;52.710;6.438;2022-11-15T02:05:39;38.17;;;23.65;;
55003;SDS011;40900;52.710;6.438;2022-11-15T02:08:06;38.80;;;24.05;;
55003;SDS011;40900;52.710;6.438;2022-11-15T02:10:33;41.75;;;24.42;;
55003;SDS011;40900;52.710;6.438;2022-11-15T02:12:59;37.30;;;24.25;;
55003;SDS011;40900;52.710;6.438;2022-11-15T02:15:26;42.72;;;24.17;;
55003;SDS011;40900;52.710;6.438;2022-11-15T02:18:02;38.13;;;24.33;;
55003;SDS011;40900;52.710;6.438;2022-11-15T02:21:06;39.20;;;23.77;;
55003;SDS011;40900;52.710;6.438;2022-11-15T02:23:45;43.28;;;25.20;;
55003;SDS011;40900;52.710;6.438;2022-11-15T02:26:49;45.72;;;25.90;;
55003;SDS011;40900;52.710;6.438;2022-11-15T02:29:37;45.90;;;25.65;;
55003;SDS011;40900;52.710;6.438;2022-11-15T02:32:09;47.92;;;26.80;;
55003;SDS011;40900;52.710;6.438;2022-11-15T02:37:37;43.97;;;26.67;;
55003;SDS011;40900;52.710;6.438;2022-11-15T02:40:24;44.67;;;25.30;;
55003;SDS011;40900;52.710;6.438;2022-11-15T02:43:00;48.17;;;26.35;;
55003;SDS011;40900;52.710;6.438;2022-11-15T02:45:52;53.00;;;28.67;;
55003;SDS011;40900;52.710;6.438;2022-11-15T02:48:46;46.95;;;27.48;;
55003;SDS011;40900;52.710;6.438;2022-11-15T02:51:13;48.42;;;27.35;;
55003;SDS011;40900;52.710;6.438;2022-11-15T02:53:39;55.13;;;27.02;;
55003;SDS011;40900;52.710;6.438;2022-11-15T02:56:07;49.88;;;28.85;;
55003;SDS011;40900;52.710;6.438;2022-11-15T02:58:51;49.90;;;27.90;;
55003;SDS011;40900;52.710;6.438;2022-11-15T03:01:38;53.72;;;29.35;;
55003;SDS011;40900;52.710;6.438;2022-11-15T03:04:36;57.05;;;30.63;;
55003;SDS011;40900;52.710;6.438;2022-11-15T03:12:47;67.55;;;33.28;;
55003;SDS011;40900;52.710;6.438;2022-11-15T03:15:21;64.03;;;32.37;;
55003;SDS011;40900;52.710;6.438;2022-11-15T03:18:07;61.45;;;33.83;;
55003;SDS011;40900;52.710;6.438;2022-11-15T03:20:41;70.20;;;34.35;;
55003;SDS011;40900;52.710;6.438;2022-11-15T03:23:08;77.50;;;34.47;;
55003;SDS011;40900;52.710;6.438;2022-11-15T03:25:36;64.10;;;35.17;;
55003;SDS011;40900;52.710;6.438;2022-11-15T03:28:06;70.53;;;34.72;;
55003;SDS011;40900;52.710;6.438;2022-11-15T03:30:37;71.57;;;36.05;;
55003;SDS011;40900;52.710;6.438;2022-11-15T03:33:05;72.43;;;36.10;;
55003;SDS011;40900;52.710;6.438;2022-11-15T03:35:33;73.35;;;36.50;;
55003;SDS011;40900;52.710;6.438;2022-11-15T03:40:38;79.68;;;39.20;;
55003;SDS011;40900;52.710;6.438;2022-11-15T03:45:46;82.40;;;38.72;;
55003;SDS011;40900;52.710;6.438;2022-11-15T03:48:27;77.55;;;39.00;;
55003;SDS011;40900;52.710;6.438;2022-11-15T03:51:02;80.75;;;38.85;;
55003;SDS011;40900;52.710;6.438;2022-11-15T03:53:29;70.93;;;39.53;;
55003;SDS011;40900;52.710;6.438;2022-11-15T03:55:56;87.00;;;40.72;;
55003;SDS011;40900;52.710;6.438;2022-11-15T03:58:22;91.53;;;43.50;;
55003;SDS011;40900;52.710;6.438;2022-11-15T04:00:48;80.78;;;41.00;;
55003;SDS011;40900;52.710;6.438;2022-11-15T04:03:14;82.00;;;40.83;;
55003;SDS011;40900;52.710;6.438;2022-11-15T04:05:39;82.57;;;42.17;;
55003;SDS011;40900;52.710;6.438;2022-11-15T04:08:05;87.10;;;42.08;;
55003;SDS011;40900;52.710;6.438;2022-11-15T04:10:31;85.20;;;42.40;;
55003;SDS011;40900;52.710;6.438;2022-11-15T04:12:56;92.43;;;44.10;;
55003;SDS011;40900;52.710;6.438;2022-11-15T04:15:22;87.25;;;43.58;;
55003;SDS011;40900;52.710;6.438;2022-11-15T04:20:17;91.82;;;43.03;;
55003;SDS011;40900;52.710;6.438;2022-11-15T04:23:10;86.70;;;44.78;;
55003;SDS011;40900;52.710;6.438;2022-11-15T04:25:58;86.88;;;46.05;;
55003;SDS011;40900;52.710;6.438;2022-11-15T04:28:26;94.38;;;43.58;;
55003;SDS011;40900;52.710;6.438;2022-11-15T04:30:51;94.07;;;46.03;;
55003;SDS011;40900;52.710;6.438;2022-11-15T04:33:17;96.85;;;48.78;;
55003;SDS011;40900;52.710;6.438;2022-11-15T04:35:43;95.18;;;47.33;;
55003;SDS011;40900;52.710;6.438;2022-11-15T04:38:29;91.00;;;46.22;;
55003;SDS011;40900;52.710;6.438;2022-11-15T04:40:55;86.03;;;46.13;;
55003;SDS011;40900;52.710;6.438;2022-11-15T04:43:20;89.03;;;47.53;;
55003;SDS011;40900;52.710;6.438;2022-11-15T04:45:46;91.50;;;47.83;;
55003;SDS011;40900;52.710;6.438;2022-11-15T04:48:11;97.75;;;47.55;;
55003;SDS011;40900;52.710;6.438;2022-11-15T04:50:37;86.05;;;47.42;;
55003;SDS011;40900;52.710;6.438;2022-11-15T04:53:03;89.07;;;46.70;;
55003;SDS011;40900;52.710;6.438;2022-11-15T04:55:28;93.88;;;47.85;;
55003;SDS011;40900;52.710;6.438;2022-11-15T04:57:57;86.10;;;48.83;;
55003;SDS011;40900;52.710;6.438;2022-11-15T05:00:26;86.55;;;47.60;;
55003;SDS011;40900;52.710;6.438;2022-11-15T05:02:53;86.63;;;48.08;;
55003;SDS011;40900;52.710;6.438;2022-11-15T05:05:38;94.18;;;47.55;;
55003;SDS011;40900;52.710;6.438;2022-11-15T05:08:04;85.65;;;46.53;;
55003;SDS011;40900;52.710;6.438;2022-11-15T05:10:30;90.93;;;47.00;;
55003;SDS011;40900;52.710;6.438;2022-11-15T05:12:56;82.90;;;46.35;;
55003;SDS011;40900;52.710;6.438;2022-11-15T05:15:21;78.88;;;45.38;;
55003;SDS011;40900;52.710;6.438;2022-11-15T05:17:47;80.13;;;46.30;;
55003;SDS011;40900;52.710;6.438;2022-11-15T05:20:13;82.00;;;46.20;;
55003;SDS011;40900;52.710;6.438;2022-11-15T05:22:39;74.25;;;44.20;;
55003;SDS011;40900;52.710;6.438;2022-11-15T05:25:05;74.13;;;45.53;;
55003;SDS011;40900;52.710;6.438;2022-11-15T05:27:32;81.25;;;45.13;;
55003;SDS011;40900;52.710;6.438;2022-11-15T05:29:59;76.00;;;45.35;;
55003;SDS011;40900;52.710;6.438;2022-11-15T05:32:24;72.43;;;44.88;;
55003;SDS011;40900;52.710;6.438;2022-11-15T05:34:50;74.88;;;45.00;;
55003;SDS011;40900;52.710;6.438;2022-11-15T05:37:16;74.80;;;44.65;;
55003;SDS011;40900;52.710;6.438;2022-11-15T05:39:43;80.35;;;45.53;;
55003;SDS011;40900;52.710;6.438;2022-11-15T05:44:39;80.03;;;46.47;;
55003;SDS011;40900;52.710;6.438;2022-11-15T05:47:08;75.30;;;43.88;;
55003;SDS011;40900;52.710;6.438;2022-11-15T05:49:37;76.05;;;43.30;;
55003;SDS011;40900;52.710;6.438;2022-11-15T05:52:07;77.28;;;45.35;;
55003;SDS011;40900;52.710;6.438;2022-11-15T05:54:35;76.05;;;44.22;;
55003;SDS011;40900;52.710;6.438;2022-11-15T05:57:02;79.50;;;45.58;;
55003;SDS011;40900;52.710;6.438;2022-11-15T05:59:29;80.30;;;44.33;;
55003;SDS011;40900;52.710;6.438;2022-11-15T06:01:57;77.97;;;44.05;;
55003;SDS011;40900;52.710;6.438;2022-11-15T06:04:23;77.93;;;45.42;;
55003;SDS011;40900;52.710;6.438;2022-11-15T06:06:49;81.70;;;44.25;;
55003;SDS011;40900;52.710;6.438;2022-11-15T06:09:15;82.95;;;43.75;;
55003;SDS011;40900;52.710;6.438;2022-11-15T06:11:40;75.38;;;43.35;;
55003;SDS011;40900;52.710;6.438;2022-11-15T06:14:06;70.45;;;42.35;;
55003;SDS011;40900;52.710;6.438;2022-11-15T06:16:32;79.70;;;44.38;;
55003;SDS011;40900;52.710;6.438;2022-11-15T06:18:57;80.63;;;43.35;;
55003;SDS011;40900;52.710;6.438;2022-11-15T06:21:23;73.60;;;43.05;;
55003;SDS011;40900;52.710;6.438;2022-11-15T06:23:49;74.63;;;41.40;;
55003;SDS011;40900;52.710;6.438;2022-11-15T06:26:15;73.68;;;42.70;;
55003;SDS011;40900;52.710;6.438;2022-11-15T06:28:40;76.40;;;43.75;;
55003;SDS011;40900;52.710;6.438;2022-11-15T06:31:08;71.47;;;41.92;;
55003;SDS011;40900;52.710;6.438;2022-11-15T06:33:36;75.50;;;42.45;;
55003;SDS011;40900;52.710;6.438;2022-11-15T06:36:03;73.32;;;40.97;;
55003;SDS011;40900;52.710;6.438;2022-11-15T06:38:30;68.80;;;42.20;;
55003;SDS011;40900;52.710;6.438;2022-11-15T06:41:00;75.63;;;41.90;;
55003;SDS011;40900;52.710;6.438;2022-11-15T06:43:30;72.10;;;43.08;;
55003;SDS011;40900;52.710;6.438;2022-11-15T06:45:57;64.03;;;40.58;;
55003;SDS011;40900;52.710;6.438;2022-11-15T06:48:24;66.63;;;41.25;;
55003;SDS011;40900;52.710;6.438;2022-11-15T06:50:54;64.60;;;39.20;;
55003;SDS011;40900;52.710;6.438;2022-11-15T06:53:21;62.53;;;40.10;;
55003;SDS011;40900;52.710;6.438;2022-11-15T06:55:48;66.40;;;39.72;;
55003;SDS011;40900;52.710;6.438;2022-11-15T06:58:14;64.32;;;38.60;;
55003;SDS011;40900;52.710;6.438;2022-11-15T07:00:40;62.85;;;38.47;;
55003;SDS011;40900;52.710;6.438;2022-11-15T07:03:06;63.28;;;38.35;;
55003;SDS011;40900;52.710;6.438;2022-11-15T07:05:32;60.47;;;38.13;;
55003;SDS011;40900;52.710;6.438;2022-11-15T07:07:58;57.63;;;37.22;;
55003;SDS011;40900;52.710;6.438;2022-11-15T07:10:24;65.85;;;38.60;;
55003;SDS011;40900;52.710;6.438;2022-11-15T07:12:51;61.53;;;37.90;;
55003;SDS011;40900;52.710;6.438;2022-11-15T07:15:18;63.35;;;38.53;;
55003;SDS011;40900;52.710;6.438;2022-11-15T07:17:44;60.60;;;37.50;;
55003;SDS011;40900;52.710;6.438;2022-11-15T07:20:10;61.38;;;36.65;;
55003;SDS011;40900;52.710;6.438;2022-11-15T07:22:38;58.60;;;37.83;;
55003;SDS011;40900;52.710;6.438;2022-11-15T07:25:04;57.22;;;36.92;;
55003;SDS011;40900;52.710;6.438;2022-11-15T07:27:30;59.30;;;36.47;;
55003;SDS011;40900;52.710;6.438;2022-11-15T07:29:56;59.10;;;37.72;;
55003;SDS011;40900;52.710;6.438;2022-11-15T07:32:22;56.47;;;36.08;;
55003;SDS011;40900;52.710;6.438;2022-11-15T07:34:47;57.90;;;35.83;;
55003;SDS011;40900;52.710;6.438;2022-11-15T07:37:13;53.33;;;35.00;;
55003;SDS011;40900;52.710;6.438;2022-11-15T07:39:39;52.22;;;35.92;;
55003;SDS011;40900;52.710;6.438;2022-11-15T07:42:04;55.28;;;35.65;;
55003;SDS011;40900;52.710;6.438;2022-11-15T07:44:49;53.45;;;34.78;;
55003;SDS011;40900;52.710;6.438;2022-11-15T07:47:14;57.10;;;35.03;;
55003;SDS011;40900;52.710;6.438;2022-11-15T07:49:40;53.55;;;34.60;;
55003;SDS011;40900;52.710;6.438;2022-11-15T07:52:06;50.60;;;33.85;;
55003;SDS011;40900;52.710;6.438;2022-11-15T07:54:31;54.67;;;34.92;;
55003;SDS011;40900;52.710;6.438;2022-11-15T07:56:57;52.92;;;34.70;;
55003;SDS011;40900;52.710;6.438;2022-11-15T07:59:23;49.42;;;33.70;;
55003;SDS011;40900;52.710;6.438;2022-11-15T08:01:48;50.72;;;33.63;;
55003;SDS011;40900;52.710;6.438;2022-11-15T08:04:14;53.53;;;34.45;;
55003;SDS011;40900;52.710;6.438;2022-11-15T08:06:40;50.13;;;34.70;;
55003;SDS011;40900;52.710;6.438;2022-11-15T08:09:08;55.63;;;34.33;;
55003;SDS011;40900;52.710;6.438;2022-11-15T08:11:34;47.42;;;34.45;;
55003;SDS011;40900;52.710;6.438;2022-11-15T08:14:00;47.25;;;33.50;;
55003;SDS011;40900;52.710;6.438;2022-11-15T08:16:26;59.80;;;35.05;;
55003;SDS011;40900;52.710;6.438;2022-11-15T08:18:51;46.97;;;32.97;;
55003;SDS011;40900;52.710;6.438;2022-11-15T08:21:20;50.13;;;33.90;;
55003;SDS011;40900;52.710;6.438;2022-11-15T08:23:47;49.17;;;33.85;;
55003;SDS011;40900;52.710;6.438;2022-11-15T08:26:13;51.40;;;33.80;;
55003;SDS011;40900;52.710;6.438;2022-11-15T08:28:39;53.53;;;33.88;;
55003;SDS011;40900;52.710;6.438;2022-11-15T08:31:05;49.30;;;33.22;;
55003;SDS011;40900;52.710;6.438;2022-11-15T08:33:31;43.55;;;33.08;;
55003;SDS011;40900;52.710;6.438;2022-11-15T08:35:58;47.28;;;32.63;;
55003;SDS011;40900;52.710;6.438;2022-11-15T08:38:25;48.80;;;33.92;;
55003;SDS011;40900;52.710;6.438;2022-11-15T08:40:51;52.13;;;33.80;;
55003;SDS011;40900;52.710;6.438;2022-11-15T08:43:23;53.92;;;34.85;;
55003;SDS011;40900;52.710;6.438;2022-11-15T08:45:49;48.38;;;32.95;;
55003;SDS011;40900;52.710;6.438;2022-11-15T08:48:14;44.70;;;32.83;;
55003;SDS011;40900;52.710;6.438;2022-11-15T08:50:40;47.08;;;33.53;;
55003;SDS011;40900;52.710;6.438;2022-11-15T08:53:06;48.50;;;33.00;;
55003;SDS011;40900;52.710;6.438;2022-11-15T08:55:35;47.30;;;33.25;;
55003;SDS011;40900;52.710;6.438;2022-11-15T08:58:02;50.40;;;34.22;;
55003;SDS011;40900;52.710;6.438;2022-11-15T09:00:28;43.58;;;31.35;;
55003;SDS011;40900;52.710;6.438;2022-11-15T09:02:53;45.83;;;31.65;;
55003;SDS011;40900;52.710;6.438;2022-11-15T09:05:19;46.08;;;32.10;;
55003;SDS011;40900;52.710;6.438;2022-11-15T09:07:45;41.03;;;29.98;;
55003;SDS011;40900;52.710;6.438;2022-11-15T09:10:11;41.55;;;31.08;;
55003;SDS011;40900;52.710;6.438;2022-11-15T09:12:37;44.90;;;30.77;;
55003;SDS011;40900;52.710;6.438;2022-11-15T09:15:03;43.70;;;30.67;;
55003;SDS011;40900;52.710;6.438;2022-11-15T09:17:30;44.60;;;30.55;;
55003;SDS011;40900;52.710;6.438;2022-11-15T09:19:56;43.15;;;29.52;;
55003;SDS011;40900;52.710;6.438;2022-11-15T09:22:22;38.72;;;28.90;;
55003;SDS011;40900;52.710;6.438;2022-11-15T09:24:47;41.00;;;30.13;;
55003;SDS011;40900;52.710;6.438;2022-11-15T09:27:13;37.78;;;28.45;;
55003;SDS011;40900;52.710;6.438;2022-11-15T09:29:39;36.75;;;27.15;;
55003;SDS011;40900;52.710;6.438;2022-11-15T09:32:05;36.50;;;28.38;;
55003;SDS011;40900;52.710;6.438;2022-11-15T09:34:31;36.65;;;27.23;;
55003;SDS011;40900;52.710;6.438;2022-11-15T09:36:56;40.08;;;25.50;;
55003;SDS011;40900;52.710;6.438;2022-11-15T09:39:22;37.95;;;26.75;;
55003;SDS011;40900;52.710;6.438;2022-11-15T09:41:50;31.77;;;25.13;;
55003;SDS011;40900;52.710;6.438;2022-11-15T09:49:51;31.25;;;23.65;;
55003;SDS011;40900;52.710;6.438;2022-11-15T09:52:18;38.47;;;23.58;;
55003;SDS011;40900;52.710;6.438;2022-11-15T09:54:46;28.58;;;21.20;;
55003;SDS011;40900;52.710;6.438;2022-11-15T09:57:18;23.98;;;18.48;;
55003;SDS011;40900;52.710;6.438;2022-11-15T10:05:39;20.30;;;15.77;;
55003;SDS011;40900;52.710;6.438;2022-11-15T10:10:57;20.35;;;15.38;;
55003;SDS011;40900;52.710;6.438;2022-11-15T10:13:30;17.33;;;14.90;;
55003;SDS011;40900;52.710;6.438;2022-11-15T10:18:56;20.92;;;15.15;;
55003;SDS011;40900;52.710;6.438;2022-11-15T10:24:23;13.40;;;11.32;;
55003;SDS011;40900;52.710;6.438;2022-11-15T10:26:53;16.40;;;10.05;;
55003;SDS011;40900;52.710;6.438;2022-11-15T10:29:20;11.25;;;8.48;;
55003;SDS011;40900;52.710;6.438;2022-11-15T10:31:47;11.60;;;8.65;;
55003;SDS011;40900;52.710;6.438;2022-11-15T10:34:14;9.95;;;7.18;;
55003;SDS011;40900;52.710;6.438;2022-11-15T10:37:03;10.02;;;6.43;;
55003;SDS011;40900;52.710;6.438;2022-11-15T10:39:27;11.43;;;6.38;;
55003;SDS011;40900;52.710;6.438;2022-11-15T10:41:53;11.57;;;6.30;;
55003;SDS011;40900;52.710;6.438;2022-11-15T10:44:23;9.10;;;5.45;;
55003;SDS011;40900;52.710;6.438;2022-11-15T10:49:20;8.25;;;4.80;;
55003;SDS011;40900;52.710;6.438;2022-11-15T10:51:51;10.43;;;5.22;;
55003;SDS011;40900;52.710;6.438;2022-11-15T10:54:23;9.82;;;4.97;;
55003;SDS011;40900;52.710;6.438;2022-11-15T10:56:54;7.97;;;4.32;;
55003;SDS011;40900;52.710;6.438;2022-11-15T10:59:42;8.52;;;5.05;;
55003;SDS011;40900;52.710;6.438;2022-11-15T11:02:26;9.80;;;4.53;;
55003;SDS011;40900;52.710;6.438;2022-11-15T11:04:55;7.63;;;4.32;;
55003;SDS011;40900;52.710;6.438;2022-11-15T11:07:22;7.97;;;4.07;;
55003;SDS011;40900;52.710;6.438;2022-11-15T11:09:57;7.57;;;4.20;;
55003;SDS011;40900;52.710;6.438;2022-11-15T11:12:28;6.65;;;3.70;;
55003;SDS011;40900;52.710;6.438;2022-11-15T11:14:57;11.85;;;5.05;;
55003;SDS011;40900;52.710;6.438;2022-11-15T11:22:55;6.78;;;4.20;;
55003;SDS011;40900;52.710;6.438;2022-11-15T11:31:38;8.98;;;4.13;;
55003;SDS011;40900;52.710;6.438;2022-11-15T11:37:19;9.65;;;3.88;;
55003;SDS011;40900;52.710;6.438;2022-11-15T11:42:52;8.50;;;3.55;;
55003;SDS011;40900;52.710;6.438;2022-11-15T11:51:13;6.97;;;3.20;;
55003;SDS011;40900;52.710;6.438;2022-11-15T11:56:39;9.10;;;4.15;;
55003;SDS011;40900;52.710;6.438;2022-11-15T12:05:13;8.98;;;2.70;;
55003;SDS011;40900;52.710;6.438;2022-11-15T12:07:45;8.25;;;3.63;;
55003;SDS011;40900;52.710;6.438;2022-11-15T12:12:51;5.85;;;3.20;;
55003;SDS011;40900;52.710;6.438;2022-11-15T12:15:20;6.60;;;3.13;;
55003;SDS011;40900;52.710;6.438;2022-11-15T12:17:49;5.55;;;2.85;;
55003;SDS011;40900;52.710;6.438;2022-11-15T12:23:05;5.68;;;2.97;;
55003;SDS011;40900;52.710;6.438;2022-11-15T12:25:49;5.78;;;2.95;;
55003;SDS011;40900;52.710;6.438;2022-11-15T12:31:02;10.07;;;2.90;;
55003;SDS011;40900;52.710;6.438;2022-11-15T12:33:49;9.60;;;3.20;;
55003;SDS011;40900;52.710;6.438;2022-11-15T12:39:00;7.70;;;2.72;;
55003;SDS011;40900;52.710;6.438;2022-11-15T12:41:37;9.13;;;2.72;;
55003;SDS011;40900;52.710;6.438;2022-11-15T12:44:03;4.68;;;2.47;;
55003;SDS011;40900;52.710;6.438;2022-11-15T13:04:46;5.30;;;2.78;;
55003;SDS011;40900;52.710;6.438;2022-11-15T13:10:33;3.83;;;2.30;;
55003;SDS011;40900;52.710;6.438;2022-11-15T13:12:53;5.63;;;2.22;;
55003;SDS011;40900;52.710;6.438;2022-11-15T13:17:55;3.15;;;1.75;;
55003;SDS011;40900;52.710;6.438;2022-11-15T13:20:23;4.20;;;1.63;;
55003;SDS011;40900;52.710;6.438;2022-11-15T13:33:44;5.35;;;1.45;;
55003;SDS011;40900;52.710;6.438;2022-11-15T13:36:14;4.45;;;1.60;;
55003;SDS011;40900;52.710;6.438;2022-11-15T13:38:43;3.60;;;1.40;;
55003;SDS011;40900;52.710;6.438;2022-11-15T13:41:22;8.40;;;1.40;;
55003;SDS011;40900;52.710;6.438;2022-11-15T13:43:51;2.60;;;1.20;;
55003;SDS011;40900;52.710;6.438;2022-11-15T13:48:45;3.67;;;1.30;;
55003;SDS011;40900;52.710;6.438;2022-11-15T13:51:19;4.40;;;1.55;;
55003;SDS011;40900;52.710;6.438;2022-11-15T13:53:51;5.72;;;1.40;;
55003;SDS011;40900;52.710;6.438;2022-11-15T13:56:23;5.78;;;1.40;;
55003;SDS011;40900;52.710;6.438;2022-11-15T13:58:51;3.08;;;1.20;;
55003;SDS011;40900;52.710;6.438;2022-11-15T14:01:18;4.18;;;1.13;;
55003;SDS011;40900;52.710;6.438;2022-11-15T14:03:47;3.90;;;1.30;;
55003;SDS011;40900;52.710;6.438;2022-11-15T14:06:17;7.70;;;1.63;;
55003;SDS011;40900;52.710;6.438;2022-11-15T14:11:28;3.60;;;1.50;;
55003;SDS011;40900;52.710;6.438;2022-11-15T14:14:04;5.78;;;1.52;;
55003;SDS011;40900;52.710;6.438;2022-11-15T14:16:37;5.43;;;1.50;;
55003;SDS011;40900;52.710;6.438;2022-11-15T14:19:08;4.30;;;1.65;;
55003;SDS011;40900;52.710;6.438;2022-11-15T14:22:07;4.20;;;1.85;;
55003;SDS011;40900;52.710;6.438;2022-11-15T14:24:41;4.65;;;1.55;;
55003;SDS011;40900;52.710;6.438;2022-11-15T14:27:30;3.35;;;1.60;;
55003;SDS011;40900;52.710;6.438;2022-11-15T14:29:56;4.13;;;1.85;;
55003;SDS011;40900;52.710;6.438;2022-11-15T14:32:23;3.80;;;1.90;;
55003;SDS011;40900;52.710;6.438;2022-11-15T14:34:57;3.63;;;2.03;;
55003;SDS011;40900;52.710;6.438;2022-11-15T14:37:28;6.05;;;2.10;;
55003;SDS011;40900;52.710;6.438;2022-11-15T14:39:59;7.93;;;2.63;;
55003;SDS011;40900;52.710;6.438;2022-11-15T14:42:26;4.95;;;2.25;;
55003;SDS011;40900;52.710;6.438;2022-11-15T14:44:52;5.47;;;2.83;;
55003;SDS011;40900;52.710;6.438;2022-11-15T14:47:18;4.53;;;2.60;;
55003;SDS011;40900;52.710;6.438;2022-11-15T14:49:44;6.32;;;2.80;;
55003;SDS011;40900;52.710;6.438;2022-11-15T14:52:31;5.85;;;3.15;;
55003;SDS011;40900;52.710;6.438;2022-11-15T14:55:01;9.18;;;3.80;;
55003;SDS011;40900;52.710;6.438;2022-11-15T14:57:29;6.65;;;3.55;;
55003;SDS011;40900;52.710;6.438;2022-11-15T14:59:55;8.82;;;4.32;;
55003;SDS011;40900;52.710;6.438;2022-11-15T15:02:23;8.15;;;4.75;;
55003;SDS011;40900;52.710;6.438;2022-11-15T15:04:50;9.05;;;5.30;;
55003;SDS011;40900;52.710;6.438;2022-11-15T15:07:16;7.75;;;5.70;;
55003;SDS011;40900;52.710;6.438;2022-11-15T15:09:43;5.65;;;4.53;;
55003;SDS011;40900;52.710;6.438;2022-11-15T15:12:14;7.55;;;5.15;;
55003;SDS011;40900;52.710;6.438;2022-11-15T15:14:40;6.78;;;5.30;;
55003;SDS011;40900;52.710;6.438;2022-11-15T15:17:05;9.77;;;5.30;;
55003;SDS011;40900;52.710;6.438;2022-11-15T15:19:31;8.38;;;6.13;;
55003;SDS011;40900;52.710;6.438;2022-11-15T15:21:57;12.38;;;6.07;;
55003;SDS011;40900;52.710;6.438;2022-11-15T15:24:22;7.32;;;6.22;;
55003;SDS011;40900;52.710;6.438;2022-11-15T15:26:48;8.27;;;5.80;;
55003;SDS011;40900;52.710;6.438;2022-11-15T15:29:14;9.50;;;5.95;;
55003;SDS011;40900;52.710;6.438;2022-11-15T15:31:40;12.43;;;5.82;;
55003;SDS011;40900;52.710;6.438;2022-11-15T15:34:06;6.57;;;5.85;;
55003;SDS011;40900;52.710;6.438;2022-11-15T15:36:32;8.60;;;5.80;;
55003;SDS011;40900;52.710;6.438;2022-11-15T15:38:57;10.07;;;5.95;;
55003;SDS011;40900;52.710;6.438;2022-11-15T15:41:23;13.10;;;6.07;;
55003;SDS011;40900;52.710;6.438;2022-11-15T15:43:49;7.60;;;5.53;;
55003;SDS011;40900;52.710;6.438;2022-11-15T15:46:15;8.15;;;5.82;;
55003;SDS011;40900;52.710;6.438;2022-11-15T15:48:42;8.60;;;5.72;;
55003;SDS011;40900;52.710;6.438;2022-11-15T15:51:09;19.58;;;6.93;;
55003;SDS011;40900;52.710;6.438;2022-11-15T15:53:35;9.38;;;5.40;;
55003;SDS011;40900;52.710;6.438;2022-11-15T15:56:01;8.55;;;5.10;;
55003;SDS011;40900;52.710;6.438;2022-11-15T15:58:26;7.35;;;4.53;;
55003;SDS011;40900;52.710;6.438;2022-11-15T16:00:52;10.43;;;4.90;;
55003;SDS011;40900;52.710;6.438;2022-11-15T16:03:18;9.25;;;4.50;;
55003;SDS011;40900;52.710;6.438;2022-11-15T16:05:44;6.18;;;4.20;;
55003;SDS011;40900;52.710;6.438;2022-11-15T16:08:20;11.23;;;4.40;;
55003;SDS011;40900;52.710;6.438;2022-11-15T16:10:47;8.13;;;4.03;;
55003;SDS011;40900;52.710;6.438;2022-11-15T16:13:13;6.03;;;3.60;;
55003;SDS011;40900;52.710;6.438;2022-11-15T16:15:39;8.05;;;3.90;;
55003;SDS011;40900;52.710;6.438;2022-11-15T16:18:06;6.88;;;3.40;;
55003;SDS011;40900;52.710;6.438;2022-11-15T16:20:39;7.68;;;3.60;;
55003;SDS011;40900;52.710;6.438;2022-11-15T16:23:08;6.65;;;3.25;;
55003;SDS011;40900;52.710;6.438;2022-11-15T16:28:22;9.35;;;3.22;;
55003;SDS011;40900;52.710;6.438;2022-11-15T16:31:11;7.00;;;2.80;;
55003;SDS011;40900;52.710;6.438;2022-11-15T16:36:04;5.05;;;2.60;;
55003;SDS011;40900;52.710;6.438;2022-11-15T16:38:44;4.80;;;2.40;;
55003;SDS011;40900;52.710;6.438;2022-11-15T16:41:10;4.70;;;2.22;;
55003;SDS011;40900;52.710;6.438;2022-11-15T16:43:35;6.75;;;2.60;;
55003;SDS011;40900;52.710;6.438;2022-11-15T16:46:19;5.80;;;2.38;;
55003;SDS011;40900;52.710;6.438;2022-11-15T16:48:49;6.43;;;2.17;;
55003;SDS011;40900;52.710;6.438;2022-11-15T16:51:15;5.40;;;1.95;;